createdAt,value
2023-03-07T00:00:16.814Z,8.00
2023-03-07T00:02:47.950Z,7.60
2023-03-07T00:05:18.843Z,9.05
2023-03-07T00:07:53.237Z,8.00
2023-03-07T00:10:24.607Z,7.82
2023-03-07T00:12:58.832Z,7.95
2023-03-07T00:18:00.939Z,8.77
2023-03-07T00:20:32.263Z,8.70
2023-03-07T00:23:02.391Z,8.07
2023-03-07T00:25:33.393Z,8.40
2023-03-07T00:28:04.348Z,7.60
2023-03-07T00:30:35.513Z,8.15
2023-03-07T00:33:06.167Z,8.75
2023-03-07T00:35:41.097Z,8.52
2023-03-07T00:38:12.435Z,8.55
2023-03-07T00:40:47.393Z,7.53
2023-03-07T00:43:19.002Z,8.50
2023-03-07T00:45:50.467Z,8.93
2023-03-07T00:48:23.303Z,8.63
2023-03-07T00:50:55.026Z,8.05
2023-03-07T00:53:27.071Z,8.48
2023-03-07T00:56:05.440Z,8.35
2023-03-07T00:58:38.341Z,7.88
2023-03-07T01:01:12.066Z,8.73
2023-03-07T01:03:45.641Z,8.18
2023-03-07T01:06:18.643Z,7.57
2023-03-07T01:08:50.225Z,7.10
2023-03-07T01:11:23.923Z,6.97
2023-03-07T01:13:58.531Z,7.43
2023-03-07T01:16:34.800Z,6.78
2023-03-07T01:19:09.904Z,7.15
2023-03-07T01:21:42.096Z,7.15
2023-03-07T01:24:21.312Z,7.05
2023-03-07T01:26:52.764Z,7.22
2023-03-07T01:29:25.289Z,7.75
2023-03-07T01:31:56.447Z,7.75
2023-03-07T01:34:27.779Z,7.05
2023-03-07T01:37:03.712Z,6.80
2023-03-07T01:39:42.289Z,6.55
2023-03-07T01:42:17.631Z,6.35
2023-03-07T01:45:10.944Z,6.13
2023-03-07T01:47:43.038Z,7.10
2023-03-07T01:50:20.436Z,7.20
2023-03-07T01:53:10.750Z,7.88
2023-03-07T01:55:42.020Z,7.10
2023-03-07T01:58:16.385Z,6.50
2023-03-07T02:03:33.773Z,6.60
2023-03-07T02:06:06.174Z,6.70
2023-03-07T02:08:37.484Z,7.07
2023-03-07T02:11:09.401Z,5.63
2023-03-07T02:13:40.741Z,6.53
2023-03-07T02:16:14.537Z,6.05
2023-03-07T02:18:50.389Z,6.80
2023-03-07T02:21:37.272Z,6.13
2023-03-07T02:24:34.050Z,5.90
2023-03-07T02:27:08.326Z,6.30
2023-03-07T02:29:39.483Z,5.10
2023-03-07T02:32:11.461Z,5.80
2023-03-07T02:34:41.593Z,5.93
2023-03-07T02:37:18.810Z,5.65
2023-03-07T02:39:55.965Z,4.90
2023-03-07T02:42:28.672Z,5.38
2023-03-07T02:45:04.218Z,5.25
2023-03-07T02:47:35.180Z,5.78
2023-03-07T02:50:06.536Z,5.18
2023-03-07T02:52:37.958Z,5.68
2023-03-07T02:55:09.533Z,4.93
2023-03-07T02:57:40.548Z,5.30
2023-03-07T03:00:14.434Z,4.75
2023-03-07T03:02:45.643Z,4.82
2023-03-07T03:05:16.667Z,4.72
2023-03-07T03:07:47.634Z,4.60
2023-03-07T03:10:19.424Z,4.90
2023-03-07T03:12:50.143Z,5.05
2023-03-07T03:15:20.697Z,4.72
2023-03-07T03:17:51.945Z,5.20
2023-03-07T03:20:23.154Z,5.13
2023-03-07T03:22:55.235Z,4.18
2023-03-07T03:25:27.360Z,4.65
2023-03-07T03:27:58.028Z,4.47
2023-03-07T03:30:30.354Z,5.15
2023-03-07T03:33:01.394Z,4.93
2023-03-07T03:35:32.240Z,5.95
2023-03-07T03:38:03.214Z,5.72
2023-03-07T03:40:34.229Z,6.53
2023-03-07T03:43:05.388Z,6.60
2023-03-07T03:45:36.056Z,8.07
2023-03-07T03:48:06.627Z,10.35
2023-03-07T03:50:37.284Z,10.60
2023-03-07T03:53:08.345Z,12.07
2023-03-07T03:55:38.793Z,11.52
2023-03-07T03:58:09.687Z,10.77
2023-03-07T04:00:39.898Z,11.57
2023-03-07T04:03:10.510Z,10.98
2023-03-07T04:05:45.133Z,11.43
2023-03-07T04:08:15.961Z,10.85
2023-03-07T04:10:47.741Z,10.80
2023-03-07T04:13:18.330Z,9.68
2023-03-07T04:15:48.425Z,10.00
2023-03-07T04:18:18.594Z,10.48
2023-03-07T04:20:48.935Z,10.45
2023-03-07T04:23:19.577Z,8.85
2023-03-07T04:25:58.979Z,8.95
2023-03-07T04:28:45.118Z,9.50
2023-03-07T04:31:16.378Z,9.35
2023-03-07T04:33:46.189Z,9.32
2023-03-07T04:36:17.852Z,8.40
2023-03-07T04:38:48.263Z,8.73
2023-03-07T04:41:19.796Z,7.82
2023-03-07T04:43:49.537Z,8.60
2023-03-07T04:46:19.393Z,8.48
2023-03-07T04:48:49.558Z,7.47
2023-03-07T04:51:19.181Z,7.88
2023-03-07T04:53:48.763Z,7.95
2023-03-07T04:56:18.496Z,7.35
2023-03-07T04:58:48.193Z,8.43
2023-03-07T05:01:18.148Z,7.35
2023-03-07T05:03:47.808Z,7.57
2023-03-07T05:06:17.925Z,7.07
2023-03-07T05:08:47.628Z,6.80
2023-03-07T05:11:17.428Z,6.88
2023-03-07T05:13:47.096Z,6.57
2023-03-07T05:16:19.137Z,6.60
2023-03-07T05:18:48.797Z,7.35
2023-03-07T05:21:18.452Z,6.40
2023-03-07T05:23:48.068Z,6.57
2023-03-07T05:26:17.769Z,6.53
2023-03-07T05:28:47.449Z,6.70
2023-03-07T05:31:18.428Z,5.93
2023-03-07T05:33:48.612Z,5.57
2023-03-07T05:36:18.757Z,5.95
2023-03-07T05:38:48.453Z,6.55
2023-03-07T05:41:18.981Z,5.35
2023-03-07T05:43:48.936Z,5.90
2023-03-07T05:46:18.720Z,5.90
2023-03-07T05:48:48.590Z,6.15
2023-03-07T05:51:18.315Z,6.55
2023-03-07T05:53:48.122Z,6.30
2023-03-07T05:56:17.765Z,5.78
2023-03-07T05:58:47.471Z,5.78
2023-03-07T06:01:17.195Z,5.63
2023-03-07T06:03:46.893Z,5.55
2023-03-07T06:06:16.608Z,5.93
2023-03-07T06:08:46.190Z,5.80
2023-03-07T06:11:15.938Z,5.55
2023-03-07T06:13:45.650Z,5.35
2023-03-07T06:16:15.375Z,5.63
2023-03-07T06:18:45.005Z,5.70
2023-03-07T06:21:16.891Z,5.40
2023-03-07T06:23:46.729Z,5.43
2023-03-07T06:26:16.620Z,5.40
2023-03-07T06:28:46.275Z,5.70
2023-03-07T06:31:17.901Z,5.45
2023-03-07T06:33:49.239Z,5.47
2023-03-07T06:36:19.893Z,5.20
2023-03-07T06:38:49.582Z,5.82
2023-03-07T06:41:19.394Z,5.45
2023-03-07T06:43:52.379Z,4.93
2023-03-07T06:46:23.116Z,5.40
2023-03-07T06:48:53.664Z,5.50
2023-03-07T06:51:23.226Z,5.13
2023-03-07T06:53:52.837Z,5.13
2023-03-07T06:56:22.501Z,5.13
2023-03-07T06:58:52.086Z,5.03
2023-03-07T07:01:22.435Z,5.25
2023-03-07T07:03:52.192Z,5.10
2023-03-07T07:06:21.888Z,5.22
2023-03-07T07:08:51.569Z,5.40
2023-03-07T07:11:21.131Z,5.10
2023-03-07T07:13:52.207Z,4.82
2023-03-07T07:16:22.085Z,5.05
2023-03-07T07:18:54.556Z,5.32
2023-03-07T07:21:24.147Z,5.18
2023-03-07T07:23:53.818Z,4.90
2023-03-07T07:26:23.552Z,5.28
2023-03-07T07:28:53.444Z,4.80
2023-03-07T07:31:23.174Z,5.32
2023-03-07T07:33:52.769Z,6.30
2023-03-07T07:36:22.962Z,4.82
2023-03-07T07:38:52.937Z,4.75
2023-03-07T07:41:22.616Z,5.50
2023-03-07T07:43:55.759Z,5.32
2023-03-07T07:46:25.563Z,6.28
2023-03-07T07:48:55.192Z,5.00
2023-03-07T07:51:24.758Z,5.78
2023-03-07T07:53:54.372Z,5.40
2023-03-07T07:56:24.049Z,5.53
2023-03-07T07:58:54.045Z,5.88
2023-03-07T08:01:25.145Z,5.05
2023-03-07T08:03:54.836Z,4.65
2023-03-07T08:06:26.368Z,4.95
2023-03-07T08:08:56.481Z,5.55
2023-03-07T08:11:26.201Z,5.20
2023-03-07T08:13:55.905Z,4.78
2023-03-07T08:16:25.870Z,5.18
2023-03-07T08:19:00.102Z,5.60
2023-03-07T08:23:58.924Z,27.48
2023-03-07T08:26:28.707Z,37.58
2023-03-07T08:28:58.384Z,20.98
2023-03-07T08:31:28.183Z,25.58
2023-03-07T08:33:57.975Z,18.00
2023-03-07T08:36:27.701Z,21.02
2023-03-07T08:38:57.270Z,16.30
2023-03-07T08:41:26.896Z,16.90
2023-03-07T08:43:56.487Z,15.00
2023-03-07T08:46:26.114Z,16.60
2023-03-07T08:48:55.817Z,11.73
2023-03-07T08:51:25.557Z,11.35
2023-03-07T08:53:55.244Z,12.30
2023-03-07T08:56:24.896Z,13.48
2023-03-07T08:58:57.620Z,9.07
2023-03-07T09:01:27.537Z,8.63
2023-03-07T09:03:57.234Z,10.80
2023-03-07T09:06:26.791Z,9.77
2023-03-07T09:08:56.514Z,8.98
2023-03-07T09:11:28.074Z,8.93
2023-03-07T09:13:57.763Z,8.75
2023-03-07T09:16:27.363Z,8.15
2023-03-07T09:18:57.033Z,8.52
2023-03-07T09:21:26.734Z,7.82
2023-03-07T09:23:56.450Z,8.30
2023-03-07T09:26:26.158Z,7.53
2023-03-07T09:28:55.813Z,7.18
2023-03-07T09:31:25.458Z,7.05
2023-03-07T09:33:55.359Z,8.27
2023-03-07T09:36:25.061Z,7.70
2023-03-07T09:38:56.155Z,7.07
2023-03-07T09:41:36.266Z,6.97
2023-03-07T09:44:30.100Z,6.85
2023-03-07T09:47:32.950Z,6.45
2023-03-07T09:50:03.429Z,6.78
2023-03-07T09:52:35.804Z,6.50
2023-03-07T09:55:13.755Z,6.38
2023-03-07T09:58:02.465Z,6.75
2023-03-07T10:00:47.505Z,6.85
2023-03-07T10:03:53.711Z,6.32
2023-03-07T10:06:41.052Z,6.32
2023-03-07T10:09:17.124Z,7.00
2023-03-07T10:12:12.926Z,6.85
2023-03-07T10:14:48.641Z,6.38
2023-03-07T10:17:18.248Z,6.78
2023-03-07T10:19:59.595Z,7.07
2023-03-07T10:22:41.896Z,6.25
2023-03-07T10:25:32.784Z,6.95
2023-03-07T10:28:26.346Z,6.72
2023-03-07T10:31:00.121Z,6.03
2023-03-07T10:33:29.710Z,6.72
2023-03-07T10:36:08.878Z,6.20
2023-03-07T10:38:44.671Z,6.43
2023-03-07T10:41:18.841Z,6.82
2023-03-07T10:43:49.005Z,7.05
2023-03-07T10:46:44.081Z,7.25
2023-03-07T10:49:46.163Z,7.13
2023-03-07T10:52:28.854Z,6.75
2023-03-07T10:55:19.085Z,7.00
2023-03-07T10:57:48.685Z,7.00
2023-03-07T11:00:20.542Z,7.65
2023-03-07T11:02:50.370Z,8.75
2023-03-07T11:05:34.669Z,7.93
2023-03-07T11:08:22.029Z,8.73
2023-03-07T11:10:51.700Z,8.30
2023-03-07T11:13:22.714Z,8.65
2023-03-07T11:16:00.224Z,8.60
2023-03-07T11:18:45.709Z,9.80
2023-03-07T11:21:34.462Z,11.35
2023-03-07T11:24:08.986Z,10.98
2023-03-07T11:26:42.236Z,9.82
2023-03-07T11:29:16.017Z,10.68
2023-03-07T11:32:07.493Z,10.63
2023-03-07T11:34:38.097Z,11.88
2023-03-07T11:37:16.848Z,10.07
2023-03-07T11:40:10.422Z,12.10
2023-03-07T11:43:18.235Z,11.95
2023-03-07T11:46:00.452Z,12.80
2023-03-07T11:48:36.053Z,13.32
2023-03-07T11:51:06.182Z,12.48
2023-03-07T11:53:55.558Z,12.43
2023-03-07T11:56:36.160Z,14.50
2023-03-07T11:59:30.096Z,13.98
2023-03-07T12:02:00.806Z,14.70
2023-03-07T12:04:42.610Z,13.80
2023-03-07T12:07:19.690Z,13.70
2023-03-07T12:09:55.980Z,14.30
2023-03-07T12:12:41.006Z,14.13
2023-03-07T12:15:31.094Z,15.77
2023-03-07T12:18:12.787Z,13.82
2023-03-07T12:20:48.424Z,14.00
2023-03-07T12:23:29.566Z,14.10
2023-03-07T12:26:01.072Z,14.32
2023-03-07T12:28:34.031Z,14.68
2023-03-07T12:31:31.142Z,14.43
2023-03-07T12:34:00.913Z,14.88
2023-03-07T12:36:38.129Z,15.23
2023-03-07T12:39:20.030Z,15.20
2023-03-07T12:42:07.568Z,16.42
2023-03-07T12:44:53.497Z,15.07
2023-03-07T12:47:53.029Z,16.40
2023-03-07T12:50:24.132Z,14.93
2023-03-07T12:52:59.398Z,15.35
2023-03-07T12:55:43.748Z,15.05
2023-03-07T12:58:35.924Z,14.82
2023-03-07T13:01:16.843Z,16.15
2023-03-07T13:04:11.951Z,15.98
2023-03-07T13:06:43.250Z,16.13
2023-03-07T13:09:24.811Z,17.00
2023-03-07T13:12:21.498Z,16.67
2023-03-07T13:15:19.923Z,16.90
2023-03-07T13:17:49.470Z,15.88
2023-03-07T13:20:21.803Z,17.00
2023-03-07T13:22:51.523Z,16.83
2023-03-07T13:25:39.053Z,17.05
2023-03-07T13:28:32.659Z,17.67
2023-03-07T13:31:31.833Z,17.35
2023-03-07T13:34:39.166Z,17.20
2023-03-07T13:37:44.970Z,17.00
2023-03-07T13:40:28.056Z,18.63
2023-03-07T13:42:57.846Z,17.48
2023-03-07T13:45:42.724Z,19.15
2023-03-07T13:48:38.186Z,18.17
2023-03-07T13:51:11.441Z,18.60
2023-03-07T13:53:48.303Z,20.25
2023-03-07T13:56:17.947Z,19.33
2023-03-07T13:59:05.618Z,19.60
2023-03-07T14:01:40.983Z,20.48
2023-03-07T14:04:40.273Z,19.23
2023-03-07T14:07:29.549Z,18.95
2023-03-07T14:10:22.764Z,20.45
2023-03-07T14:13:31.252Z,19.70
2023-03-07T14:16:19.616Z,20.42
2023-03-07T14:18:58.652Z,20.80
2023-03-07T14:21:48.448Z,19.23
2023-03-07T14:24:53.282Z,20.38
2023-03-07T14:27:22.903Z,20.75
2023-03-07T14:29:54.213Z,20.60
2023-03-07T14:32:33.521Z,20.25
2023-03-07T14:35:03.226Z,21.08
2023-03-07T14:37:34.181Z,20.73
2023-03-07T14:40:15.927Z,21.35
2023-03-07T14:43:01.190Z,21.60
2023-03-07T14:45:51.293Z,21.10
2023-03-07T14:49:16.851Z,20.45
2023-03-07T14:51:46.522Z,20.13
2023-03-07T14:54:23.396Z,19.98
2023-03-07T14:56:54.173Z,21.77
2023-03-07T14:59:29.150Z,19.90
2023-03-07T15:01:59.734Z,21.88
2023-03-07T15:04:33.493Z,20.38
2023-03-07T15:07:05.903Z,20.45
2023-03-07T15:09:36.051Z,21.27
2023-03-07T15:12:20.771Z,20.67
2023-03-07T15:14:56.321Z,19.48
2023-03-07T15:17:28.230Z,20.27
2023-03-07T15:20:06.149Z,19.77
2023-03-07T15:22:40.925Z,20.15
2023-03-07T15:25:31.787Z,20.00
2023-03-07T15:28:32.331Z,19.80
2023-03-07T15:31:02.082Z,18.95
2023-03-07T15:33:32.856Z,20.77
2023-03-07T15:36:31.710Z,17.83
2023-03-07T15:39:32.748Z,18.00
2023-03-07T15:42:03.947Z,20.00
2023-03-07T15:44:34.532Z,17.85
2023-03-07T15:47:15.137Z,17.92
2023-03-07T15:49:51.002Z,17.58
2023-03-07T15:52:52.185Z,19.20
2023-03-07T15:55:23.102Z,17.92
2023-03-07T15:57:54.961Z,18.05
2023-03-07T16:00:29.642Z,18.13
2023-03-07T16:03:16.040Z,17.35
2023-03-07T16:05:45.724Z,16.42
2023-03-07T16:08:16.890Z,16.15
2023-03-07T16:10:54.615Z,16.67
2023-03-07T16:13:25.363Z,16.65
2023-03-07T16:16:23.209Z,15.50
2023-03-07T16:18:53.041Z,17.17
2023-03-07T16:21:23.170Z,16.17
2023-03-07T16:23:52.939Z,16.27
2023-03-07T16:26:26.124Z,16.17
2023-03-07T16:28:55.924Z,15.65
2023-03-07T16:31:25.547Z,16.45
2023-03-07T16:33:56.418Z,15.88
2023-03-07T16:36:26.037Z,15.55
2023-03-07T16:38:55.573Z,15.48
2023-03-07T16:41:25.715Z,15.35
2023-03-07T16:43:59.094Z,16.95
2023-03-07T16:46:28.796Z,15.23
2023-03-07T16:48:58.455Z,16.30
2023-03-07T16:51:29.826Z,15.27
2023-03-07T16:54:01.250Z,14.73
2023-03-07T16:56:35.986Z,15.18
2023-03-07T16:59:05.939Z,15.57
2023-03-07T17:01:35.564Z,14.75
2023-03-07T17:04:05.201Z,14.95
2023-03-07T17:06:39.444Z,15.07
2023-03-07T17:09:11.097Z,15.60
2023-03-07T17:11:42.547Z,16.75
2023-03-07T17:14:12.175Z,15.15
2023-03-07T17:16:52.072Z,13.93
2023-03-07T17:19:33.429Z,14.60
2023-03-07T17:22:04.350Z,15.13
2023-03-07T17:24:33.988Z,14.68
2023-03-07T17:27:05.125Z,15.20
2023-03-07T17:29:45.676Z,14.88
2023-03-07T17:32:15.305Z,14.52
2023-03-07T17:34:45.118Z,15.48
2023-03-07T17:37:15.182Z,14.60
2023-03-07T17:39:45.203Z,14.80
2023-03-07T17:42:14.990Z,14.23
2023-03-07T17:44:44.569Z,13.80
2023-03-07T17:47:14.147Z,14.30
2023-03-07T17:49:45.743Z,14.25
2023-03-07T17:52:16.433Z,15.02
2023-03-07T17:54:47.460Z,15.35
2023-03-07T17:57:17.833Z,15.02
2023-03-07T17:59:47.449Z,12.82
2023-03-07T18:02:17.221Z,14.32
2023-03-07T18:04:46.915Z,14.80
2023-03-07T18:07:19.822Z,13.95
2023-03-07T18:09:56.107Z,15.70
2023-03-07T18:12:32.226Z,14.30
2023-03-07T18:15:01.929Z,14.38
2023-03-07T18:17:46.846Z,13.43
2023-03-07T18:20:17.007Z,13.88
2023-03-07T18:22:46.703Z,13.57
2023-03-07T18:25:17.379Z,14.27
2023-03-07T18:27:47.107Z,13.45
2023-03-07T18:30:17.201Z,13.15
2023-03-07T18:32:46.878Z,13.57
2023-03-07T18:35:19.483Z,13.07
2023-03-07T18:37:49.065Z,13.55
2023-03-07T18:40:21.908Z,14.13
2023-03-07T18:42:51.682Z,13.75
2023-03-07T18:45:21.368Z,14.38
2023-03-07T18:47:51.052Z,13.98
2023-03-07T18:50:20.753Z,13.07
2023-03-07T18:52:51.908Z,13.85
2023-03-07T18:55:21.617Z,13.75
2023-03-07T18:57:51.258Z,13.55
2023-03-07T19:00:21.199Z,13.63
2023-03-07T19:02:50.888Z,14.25
2023-03-07T19:05:20.509Z,13.27
2023-03-07T19:07:50.165Z,14.00
2023-03-07T19:10:19.994Z,13.45
2023-03-07T19:12:49.605Z,13.10
2023-03-07T19:15:19.333Z,13.50
2023-03-07T19:17:49.024Z,13.73
2023-03-07T19:20:18.733Z,13.40
2023-03-07T19:22:48.313Z,13.40
2023-03-07T19:25:18.179Z,14.20
2023-03-07T19:27:47.824Z,13.45
2023-03-07T19:30:17.623Z,13.45
2023-03-07T19:32:47.522Z,13.38
2023-03-07T19:35:17.287Z,13.25
2023-03-07T19:37:46.798Z,12.43
2023-03-07T19:40:16.465Z,13.52
2023-03-07T19:42:46.121Z,13.23
2023-03-07T19:45:15.870Z,13.13
2023-03-07T19:47:45.505Z,14.15
2023-03-07T19:50:15.110Z,13.90
2023-03-07T19:52:44.646Z,13.38
2023-03-07T19:55:14.350Z,14.00
2023-03-07T19:57:44.080Z,13.75
2023-03-07T20:00:15.227Z,13.07
2023-03-07T20:02:44.868Z,14.30
2023-03-07T20:05:14.469Z,12.88
2023-03-07T20:07:44.304Z,13.88
2023-03-07T20:10:14.139Z,13.52
2023-03-07T20:12:43.875Z,14.27
2023-03-07T20:15:14.395Z,13.15
2023-03-07T20:17:44.037Z,14.05
2023-03-07T20:20:14.264Z,13.38
2023-03-07T20:22:44.042Z,12.60
2023-03-07T20:25:13.652Z,11.60
2023-03-07T20:27:43.233Z,12.52
2023-03-07T20:30:13.884Z,11.57
2023-03-07T20:32:43.635Z,11.07
2023-03-07T20:35:13.275Z,12.73
2023-03-07T20:37:42.895Z,11.23
2023-03-07T20:40:13.242Z,11.13
2023-03-07T20:42:42.854Z,11.77
2023-03-07T20:45:13.300Z,12.02
2023-03-07T20:47:42.891Z,11.70
2023-03-07T20:50:13.290Z,10.80
2023-03-07T20:52:42.916Z,11.15
2023-03-07T20:55:12.737Z,9.88
2023-03-07T20:57:42.321Z,11.45
2023-03-07T21:00:13.076Z,10.95
2023-03-07T21:02:43.405Z,10.48
2023-03-07T21:05:12.994Z,10.48
2023-03-07T21:07:42.785Z,9.40
2023-03-07T21:10:13.877Z,8.77
2023-03-07T21:12:43.444Z,7.82
2023-03-07T21:15:13.499Z,7.47
2023-03-07T21:17:43.365Z,8.07
2023-03-07T21:20:14.107Z,6.45
2023-03-07T21:22:43.686Z,7.40
2023-03-07T21:25:13.217Z,6.95
2023-03-07T21:27:42.972Z,7.60
2023-03-07T21:30:13.139Z,7.32
2023-03-07T21:32:42.853Z,7.25
2023-03-07T21:35:12.977Z,6.78
2023-03-07T21:37:42.666Z,6.63
2023-03-07T21:40:12.984Z,6.97
2023-03-07T21:42:42.666Z,6.78
2023-03-07T21:45:13.746Z,7.43
2023-03-07T21:47:43.886Z,6.60
2023-03-07T21:50:14.242Z,7.07
2023-03-07T21:52:44.021Z,7.15
2023-03-07T21:55:15.187Z,7.47
2023-03-07T21:57:45.178Z,5.95
2023-03-07T22:00:18.356Z,7.25
2023-03-07T22:02:48.047Z,6.33
2023-03-07T22:05:17.629Z,7.30
2023-03-07T22:07:47.382Z,6.85
2023-03-07T22:10:16.981Z,6.20
2023-03-07T22:12:46.569Z,6.47
2023-03-07T22:15:16.960Z,7.28
2023-03-07T22:17:46.545Z,7.15
2023-03-07T22:20:16.334Z,7.05
2023-03-07T22:22:46.073Z,6.63
2023-03-07T22:25:15.725Z,6.13
2023-03-07T22:27:46.923Z,6.75
2023-03-07T22:30:16.637Z,6.70
2023-03-07T22:32:49.423Z,6.88
2023-03-07T22:35:19.270Z,6.53
2023-03-07T22:37:48.917Z,6.07
2023-03-07T22:40:18.615Z,6.20
2023-03-07T22:42:48.211Z,6.43
2023-03-07T22:45:17.890Z,6.15
2023-03-07T22:47:47.607Z,5.00
2023-03-07T22:50:17.267Z,5.68
2023-03-07T22:52:46.972Z,5.55
2023-03-07T22:55:16.558Z,5.47
2023-03-07T22:57:46.158Z,5.70
2023-03-07T23:00:16.360Z,6.70
2023-03-07T23:02:46.107Z,6.68
2023-03-07T23:05:15.719Z,6.32
2023-03-07T23:07:47.165Z,6.10
2023-03-07T23:10:18.586Z,5.75
2023-03-07T23:12:51.165Z,6.05
2023-03-07T23:15:20.976Z,6.28
2023-03-07T23:17:50.924Z,6.35
2023-03-07T23:20:21.320Z,6.55
2023-03-07T23:22:51.202Z,6.50
2023-03-07T23:25:21.127Z,6.40
2023-03-07T23:27:50.763Z,6.80
2023-03-07T23:30:21.038Z,6.88
2023-03-07T23:32:50.608Z,6.28
2023-03-07T23:35:20.297Z,7.13
2023-03-07T23:37:50.389Z,6.72
2023-03-07T23:40:20.117Z,6.13
2023-03-07T23:42:50.140Z,7.25
2023-03-07T23:45:22.022Z,6.10
2023-03-07T23:47:52.150Z,7.80
2023-03-07T23:50:22.010Z,7.07
2023-03-07T23:52:51.845Z,7.00
2023-03-07T23:55:21.538Z,6.85
2023-03-07T23:57:51.206Z,5.85
